Time;durP1;ratioP1;P1;durP2;ratioP2;P2;SDS_P1;SDS_P2;PMS_P1;PMS_P2;Temp;Humidity;BMP_temperature;BMP_pressure;BME280_temperature;BME280_humidity;BME280_pressure;Samples;Min_cycle;Max_cycle;Signal;HPM_P1;HPM_P2
2022/06/11 00:02:06;;;;;;;9.23;4.82;;;12.20;99.90;;;;;;5069312;28;20089;-88
2022/06/11 00:04:56;;;;;;;7.93;4.57;;;12.20;99.90;;;;;;5090884;28;20135;-89
2022/06/11 00:07:47;;;;;;;8.10;4.40;;;12.10;99.90;;;;;;5106277;28;20035;-89
2022/06/11 00:10:37;;;;;;;8.10;4.40;;;12.10;99.90;;;;;;5097103;28;20044;-90
2022/06/11 00:13:25;;;;;;;10.80;4.30;;;12.10;99.90;;;;;;5077959;28;20044;-89
2022/06/11 00:16:17;;;;;;;8.35;4.45;;;12.00;99.90;;;;;;5080653;28;20040;-89
2022/06/11 00:19:09;;;;;;;6.45;3.33;;;11.90;99.90;;;;;;5084618;28;20052;-89
2022/06/11 00:22:01;;;;;;;6.00;3.15;;;12.00;99.90;;;;;;5094083;28;20400;-89
2022/06/11 00:24:50;;;;;;;7.60;3.50;;;12.10;99.90;;;;;;5085681;28;20379;-89
2022/06/11 00:27:37;;;;;;;7.18;3.58;;;12.20;99.90;;;;;;5089530;28;20074;-88
2022/06/11 00:30:28;;;;;;;5.97;3.85;;;12.20;99.90;;;;;;5098460;28;20050;-89
2022/06/11 00:33:15;;;;;;;6.63;3.55;;;12.30;99.90;;;;;;5090014;28;20048;-88
2022/06/11 00:36:06;;;;;;;5.50;3.20;;;12.30;99.90;;;;;;5088730;28;20052;-90
2022/06/11 00:38:53;;;;;;;5.85;3.60;;;12.30;99.90;;;;;;5075879;28;20062;-87
2022/06/11 00:41:46;;;;;;;4.55;2.97;;;12.20;99.90;;;;;;5069187;28;20052;-88
2022/06/11 00:44:33;;;;;;;;;;;12.20;99.90;;;;;;5093212;28;20058;-89
2022/06/11 00:47:26;;;;;;;4.93;3.40;;;12.20;99.90;;;;;;5103347;28;19973;-89
2022/06/11 00:50:31;;;;;;;4.43;3.22;;;12.40;99.90;;;;;;5076888;28;20032;-86
2022/06/11 00:53:28;;;;;;;6.10;3.47;;;12.40;99.90;;;;;;5092110;28;20464;-88
2022/06/11 00:56:25;;;;;;;6.78;3.60;;;12.30;99.90;;;;;;5093054;28;20056;-88
2022/06/11 00:59:29;;;;;;;6.57;3.45;;;12.20;99.90;;;;;;5097427;28;20068;-89
2022/06/11 01:02:18;;;;;;;4.80;3.50;;;12.10;99.90;;;;;;5100634;28;20510;-89
2022/06/11 01:05:13;;;;;;;4.03;3.63;;;12.00;99.90;;;;;;5069748;28;20069;-89
2022/06/11 01:08:19;;;;;;;5.88;3.42;;;11.90;99.90;;;;;;5074437;28;20051;-88
2022/06/11 01:11:33;;;;;;;8.35;3.75;;;11.70;99.90;;;;;;5100078;27;21118;-89
2022/06/11 01:14:26;;;;;;;7.28;3.88;;;11.60;99.90;;;;;;5090325;28;20036;-87
2022/06/11 01:17:55;;;;;;;7.53;3.58;;;11.50;99.90;;;;;;5089645;28;20377;-89
2022/06/11 01:21:11;;;;;;;8.95;4.32;;;11.50;99.90;;;;;;5081397;28;20063;-88
2022/06/11 01:24:00;;;;;;;7.40;4.35;;;11.60;99.90;;;;;;5085614;28;20072;-89
2022/06/11 01:27:25;;;;;;;7.15;3.90;;;11.80;99.90;;;;;;5094344;28;20055;-88
2022/06/11 01:30:26;;;;;;;6.05;4.13;;;11.80;99.90;;;;;;5103821;28;20460;-90
2022/06/11 01:33:41;;;;;;;5.03;3.22;;;11.70;99.90;;;;;;5092788;28;20116;-89
2022/06/11 01:36:42;;;;;;;6.95;3.65;;;12.00;99.90;;;;;;5078208;28;20044;-89
2022/06/11 01:39:42;;;;;;;6.90;3.65;;;12.20;99.90;;;;;;5090768;28;20052;-89
2022/06/11 01:42:52;;;;;;;5.05;3.70;;;12.30;99.90;;;;;;5073390;28;20044;-89
2022/06/11 01:45:45;;;;;;;7.55;3.92;;;12.30;99.90;;;;;;5075546;28;20148;-89
2022/06/11 01:48:33;;;;;;;9.48;4.72;;;12.40;99.90;;;;;;5094252;28;20179;-89
2022/06/11 01:51:28;;;;;;;7.63;3.97;;;12.30;99.90;;;;;;5085631;28;20052;-88
2022/06/11 01:54:15;;;;;;;6.78;3.90;;;12.30;99.90;;;;;;5100111;28;20097;-87
2022/06/11 01:57:09;;;;;;;6.72;4.00;;;12.20;99.90;;;;;;5105799;28;20050;-89
2022/06/11 02:00:15;;;;;;;7.05;4.20;;;12.20;99.90;;;;;;5099448;28;20049;-88
2022/06/11 02:03:12;;;;;;;6.00;4.15;;;12.00;99.90;;;;;;5093795;28;20483;-89
2022/06/11 02:06:23;;;;;;;4.93;4.38;;;11.90;99.90;;;;;;5084625;28;20040;-89
2022/06/11 02:09:24;;;;;;;6.55;4.18;;;11.80;99.90;;;;;;5094050;28;20048;-88
2022/06/11 02:12:20;;;;;;;6.60;4.80;;;11.60;99.90;;;;;;5090638;28;20089;-89
2022/06/11 02:15:22;;;;;;;8.30;4.45;;;11.50;99.90;;;;;;5077249;28;20047;-87
2022/06/11 02:18:15;;;;;;;8.07;5.35;;;11.50;99.90;;;;;;5091926;28;20051;-88
2022/06/11 02:21:17;;;;;;;5.57;4.55;;;11.60;99.90;;;;;;5090622;28;20113;-89
2022/06/11 02:24:11;;;;;;;10.25;5.15;;;11.60;99.90;;;;;;5083801;28;20040;-89
2022/06/11 02:27:05;;;;;;;6.57;5.00;;;11.80;99.90;;;;;;5079771;28;20052;-85
2022/06/11 02:29:56;;;;;;;7.93;4.82;;;11.90;99.90;;;;;;5083316;28;20108;-89
2022/06/11 02:32:43;;;;;;;6.45;4.70;;;12.00;99.90;;;;;;5083093;28;20120;-88
2022/06/11 02:35:37;;;;;;;9.40;5.10;;;12.00;99.90;;;;;;5087531;28;20044;-88
2022/06/11 02:38:28;;;;;;;10.25;4.70;;;11.90;99.90;;;;;;5092139;28;20055;-88
2022/06/11 02:41:24;;;;;;;12.05;5.07;;;11.90;99.90;;;;;;5080106;28;20365;-88
2022/06/11 02:44:14;;;;;;;11.77;5.72;;;11.90;99.90;;;;;;5098698;28;20067;-88
2022/06/11 02:47:03;;;;;;;12.18;4.95;;;11.90;99.90;;;;;;5107515;28;20048;-90
2022/06/11 02:49:51;;;;;;;9.98;5.32;;;11.80;99.90;;;;;;5083433;28;20066;-89
2022/06/11 02:52:42;;;;;;;7.03;4.90;;;11.70;99.90;;;;;;5084436;28;20060;-89
2022/06/11 02:55:30;;;;;;;10.65;5.13;;;11.70;99.90;;;;;;5087196;28;20036;-89
2022/06/11 02:58:19;;;;;;;8.60;5.20;;;11.60;99.90;;;;;;5106544;28;20048;-89
2022/06/11 03:01:08;;;;;;;8.05;5.10;;;11.50;99.90;;;;;;5102278;28;20040;-89
2022/06/11 03:04:01;;;;;;;9.57;5.40;;;11.40;99.90;;;;;;5101599;28;20114;-88
2022/06/11 03:06:49;;;;;;;7.18;5.43;;;11.30;99.90;;;;;;5092307;28;20447;-90
2022/06/11 03:09:39;;;;;;;9.77;5.05;;;11.20;99.90;;;;;;5091690;28;20113;-89
2022/06/11 03:12:26;;;;;;;7.22;4.93;;;11.10;99.90;;;;;;5084930;28;20437;-90
2022/06/11 03:15:19;;;;;;;9.00;4.95;;;11.10;99.90;;;;;;5071259;28;20072;-88
2022/06/11 03:18:07;;;;;;;11.30;5.65;;;11.10;99.90;;;;;;5082073;28;20053;-89
2022/06/11 03:20:56;;;;;;;10.63;4.88;;;11.10;99.90;;;;;;5065274;28;20071;-88
2022/06/11 03:23:45;;;;;;;10.00;4.82;;;11.10;99.90;;;;;;5074569;28;20361;-88
2022/06/11 03:26:34;;;;;;;8.93;5.47;;;11.20;99.90;;;;;;5096982;28;20055;-88
2022/06/11 03:29:23;;;;;;;6.38;4.85;;;11.20;99.90;;;;;;5085190;28;20079;-88
2022/06/11 03:32:10;;;;;;;7.28;4.88;;;11.20;99.90;;;;;;5096813;28;20060;-89
2022/06/11 03:34:57;;;;;;;8.63;5.50;;;11.20;99.90;;;;;;5102277;28;20428;-88
2022/06/11 03:37:45;;;;;;;6.80;4.72;;;11.30;99.90;;;;;;5092740;28;20089;-88
2022/06/11 03:40:33;;;;;;;5.80;4.70;;;11.30;99.90;;;;;;5083775;28;20137;-89
2022/06/11 03:43:23;;;;;;;9.75;5.00;;;11.30;99.90;;;;;;5094563;28;20048;-89
2022/06/11 03:46:11;;;;;;;6.53;4.57;;;11.40;99.90;;;;;;5080598;28;20085;-88
2022/06/11 03:49:00;;;;;;;11.30;5.05;;;11.40;99.90;;;;;;5098297;28;20547;-90
2022/06/11 03:51:48;;;;;;;6.95;4.47;;;11.50;99.90;;;;;;5099915;28;20076;-89
2022/06/11 03:54:37;;;;;;;9.05;4.70;;;11.50;99.90;;;;;;5100417;28;20052;-90
2022/06/11 03:57:25;;;;;;;7.15;4.63;;;11.60;99.90;;;;;;5098251;28;20091;-89
2022/06/11 04:01:14;;;;;;;8.13;4.40;;;11.60;99.90;;;;;;5095920;28;20094;-89
2022/06/11 04:03:30;;;;;;;4.90;3.80;;;11.60;99.90;;;;;;5099269;28;20036;-89
2022/06/11 04:06:32;;;;;;;9.05;4.53;;;11.70;99.90;;;;;;5102621;28;20036;-88
2022/06/11 04:09:35;;;;;;;11.02;4.22;;;11.70;99.90;;;;;;5088545;28;20116;-89
2022/06/11 04:12:22;;;;;;;6.47;4.55;;;11.70;99.90;;;;;;5070744;28;20423;-89
2022/06/11 04:15:13;;;;;;;5.97;4.60;;;11.80;99.90;;;;;;5077770;28;20067;-87
2022/06/11 04:18:01;;;;;;;10.60;4.78;;;11.80;99.90;;;;;;5092091;28;20051;-89
2022/06/11 04:20:49;;;;;;;6.40;4.45;;;11.90;99.90;;;;;;5078407;28;20067;-89
2022/06/11 04:23:40;;;;;;;6.50;4.13;;;11.90;99.90;;;;;;5093595;28;20079;-84
2022/06/11 04:26:36;;;;;;;7.55;4.38;;;11.90;99.90;;;;;;5075214;28;20056;-89
2022/06/11 04:29:29;;;;;;;9.02;3.85;;;12.00;99.90;;;;;;5083203;28;20369;-88
2022/06/11 04:32:19;;;;;;;8.13;4.15;;;12.10;99.90;;;;;;5093369;28;20059;-89
2022/06/11 04:35:10;;;;;;;5.97;4.10;;;12.10;99.90;;;;;;5077605;28;20051;-89
2022/06/11 04:37:59;;;;;;;6.13;4.10;;;12.20;99.90;;;;;;5080251;28;20139;-86
2022/06/11 04:40:47;;;;;;;5.85;3.90;;;12.30;99.90;;;;;;5076847;28;20123;-89
2022/06/11 04:43:36;;;;;;;5.47;3.53;;;12.40;99.90;;;;;;5092689;28;20047;-88
2022/06/11 04:46:31;;;;;;;6.13;3.90;;;12.40;99.90;;;;;;5091379;28;20105;-85
2022/06/11 04:49:24;;;;;;;4.40;3.97;;;12.50;99.90;;;;;;5091772;28;20039;-85
2022/06/11 04:52:13;;;;;;;6.43;3.55;;;12.60;99.90;;;;;;5092899;28;20358;-87
2022/06/11 04:55:01;;;;;;;6.38;3.75;;;12.80;99.90;;;;;;5093752;28;20044;-86
2022/06/11 04:57:52;;;;;;;3.83;3.33;;;12.90;99.90;;;;;;5090182;28;20118;-85
2022/06/11 05:00:39;;;;;;;7.45;3.85;;;13.00;99.90;;;;;;5091881;28;20174;-85
2022/06/11 05:03:27;;;;;;;4.80;3.47;;;13.20;99.90;;;;;;5072673;28;20457;-86
2022/06/11 05:06:23;;;;;;;6.47;3.28;;;13.30;99.90;;;;;;5074851;28;20105;-87
2022/06/11 05:09:19;;;;;;;6.18;3.25;;;13.40;99.90;;;;;;5078226;28;20032;-87
2022/06/11 05:12:07;;;;;;;7.35;3.20;;;13.60;99.90;;;;;;5090487;28;20086;-86
2022/06/11 05:14:59;;;;;;;5.25;3.00;;;13.70;99.90;;;;;;5087315;28;20051;-87
2022/06/11 05:17:46;;;;;;;5.07;3.17;;;13.70;99.90;;;;;;5070698;28;20044;-86
2022/06/11 05:20:35;;;;;;;3.28;2.80;;;13.80;99.90;;;;;;5087153;28;20040;-87
2022/06/11 05:23:29;;;;;;;6.40;3.25;;;13.90;99.90;;;;;;5079116;28;20102;-87
2022/06/11 05:26:21;;;;;;;4.18;2.80;;;14.00;99.90;;;;;;5077048;28;20101;-87
2022/06/11 05:29:11;;;;;;;8.45;3.30;;;14.10;99.90;;;;;;5085123;28;20044;-85
2022/06/11 05:31:59;;;;;;;6.65;2.85;;;14.20;99.90;;;;;;5086544;28;20357;-86
2022/06/11 05:34:49;;;;;;;4.90;3.00;;;14.30;99.90;;;;;;5068214;28;20365;-87
2022/06/11 05:37:36;;;;;;;5.40;3.00;;;14.40;99.90;;;;;;5065833;28;20048;-86
2022/06/11 05:40:27;;;;;;;5.93;2.92;;;14.50;99.90;;;;;;5087878;28;20448;-84
2022/06/11 05:43:21;;;;;;;7.43;2.80;;;14.60;99.90;;;;;;5094586;28;20048;-86
2022/06/11 05:46:16;;;;;;;4.63;3.03;;;14.80;99.90;;;;;;5073855;28;20097;-85
2022/06/11 05:49:15;;;;;;;2.50;2.30;;;15.00;99.90;;;;;;5094081;28;20142;-86
2022/06/11 05:52:10;;;;;;;7.68;3.00;;;15.20;99.90;;;;;;5092412;28;20040;-84
2022/06/11 05:54:57;;;;;;;4.15;2.83;;;15.30;99.90;;;;;;5085246;28;20159;-86
2022/06/11 05:57:48;;;;;;;4.78;2.70;;;15.40;99.90;;;;;;5092124;28;20121;-86
2022/06/11 06:00:36;;;;;;;5.00;2.78;;;15.60;99.90;;;;;;5090942;28;20055;-84
2022/06/11 06:03:24;;;;;;;3.78;2.47;;;15.80;99.90;;;;;;5096419;28;20144;-85
2022/06/11 06:06:11;;;;;;;4.40;2.42;;;16.00;99.90;;;;;;5091043;28;20645;-86
2022/06/11 06:08:59;;;;;;;7.10;2.63;;;16.10;99.90;;;;;;5092652;28;20040;-86
2022/06/11 06:11:46;;;;;;;4.47;2.25;;;16.30;99.90;;;;;;5093272;28;20044;-88
2022/06/11 06:14:33;;;;;;;3.08;2.10;;;16.50;99.90;;;;;;5094055;28;20127;-86
2022/06/11 06:17:23;;;;;;;3.40;1.90;;;16.60;99.90;;;;;;5087843;28;20441;-89
2022/06/11 06:20:21;;;;;;;4.85;1.92;;;16.90;99.90;;;;;;5090463;28;20044;-84
2022/06/11 06:23:10;;;;;;;3.83;1.63;;;17.10;99.90;;;;;;5091386;28;20370;-85
2022/06/11 06:25:58;;;;;;;3.58;2.00;;;17.20;99.90;;;;;;5089405;28;20102;-85
2022/06/11 06:28:46;;;;;;;4.32;1.80;;;17.40;99.90;;;;;;5090498;28;20472;-87
2022/06/11 06:31:37;;;;;;;2.97;1.80;;;17.70;99.90;;;;;;5092633;28;20043;-86
2022/06/11 06:34:26;;;;;;;6.15;1.88;;;17.90;99.90;;;;;;5091465;28;20031;-85
2022/06/11 06:37:14;;;;;;;4.50;1.60;;;18.20;99.90;;;;;;5090068;28;20052;-84
2022/06/11 06:40:01;;;;;;;3.75;1.48;;;18.40;99.90;;;;;;5090745;28;20086;-87
2022/06/11 06:42:48;;;;;;;3.33;1.52;;;18.60;99.90;;;;;;5106180;28;20059;-84
2022/06/11 06:45:38;;;;;;;2.50;1.48;;;18.90;99.90;;;;;;5104782;28;20043;-86
2022/06/11 06:48:25;;;;;;;3.53;1.63;;;19.20;99.90;;;;;;5103036;28;20570;-82
2022/06/11 06:51:15;;;;;;;3.25;1.33;;;19.50;99.90;;;;;;5110427;28;20070;-88
2022/06/11 06:54:03;;;;;;;4.93;1.70;;;19.60;99.90;;;;;;5120950;28;20077;-82
2022/06/11 06:56:50;;;;;;;4.53;1.60;;;19.70;99.90;;;;;;5102835;28;20086;-87
2022/06/11 06:59:37;;;;;;;2.00;1.55;;;19.80;99.90;;;;;;5114676;28;20105;-86
2022/06/11 07:02:25;;;;;;;1.45;1.30;;;20.20;99.90;;;;;;5114285;28;20149;-82
2022/06/11 07:05:13;;;;;;;7.20;1.70;;;20.20;97.70;;;;;;5113473;28;20100;-88
2022/06/11 07:08:01;;;;;;;3.95;1.70;;;20.40;97.40;;;;;;5113419;28;20048;-89
2022/06/11 07:10:55;;;;;;;2.83;1.45;;;20.70;96.90;;;;;;5102163;28;20131;-90
2022/06/11 07:13:42;;;;;;;3.33;1.25;;;21.10;99.90;;;;;;5097213;28;20051;-89
2022/06/11 07:16:41;;;;;;;2.92;1.27;;;21.30;95.60;;;;;;5103564;28;20119;-89
2022/06/11 07:19:45;;;;;;;2.20;1.30;;;21.70;93.60;;;;;;5102006;28;20040;-87
2022/06/11 07:22:44;;;;;;;3.67;1.48;;;22.10;92.40;;;;;;5092703;28;20161;-89
2022/06/11 07:25:32;;;;;;;5.13;1.40;;;22.80;87.30;;;;;;5097380;28;20047;-89
2022/06/11 07:28:24;;;;;;;5.13;1.65;;;23.20;88.00;;;;;;5096533;28;20052;-87
2022/06/11 07:31:12;;;;;;;4.13;1.50;;;23.60;81.90;;;;;;5094704;28;20067;-89
2022/06/11 07:34:00;;;;;;;5.60;1.88;;;24.30;84.50;;;;;;5079376;28;20048;-88
2022/06/11 07:36:48;;;;;;;5.43;2.42;;;24.90;74.30;;;;;;5076627;28;20039;-87
2022/06/11 07:39:35;;;;;;;4.25;1.30;;;24.80;80.00;;;;;;5092042;28;20109;-88
2022/06/11 07:42:24;;;;;;;3.92;1.33;;;24.50;71.30;;;;;;5079778;28;20468;-87
2022/06/11 07:45:14;;;;;;;3.22;1.30;;;24.10;80.60;;;;;;5095400;28;20097;-86
2022/06/11 07:48:03;;;;;;;9.95;1.80;;;24.80;73.40;;;;;;5092255;28;20461;-87
2022/06/11 07:50:52;;;;;;;2.65;1.35;;;25.20;75.00;;;;;;5080641;28;20080;-87
2022/06/11 07:53:40;;;;;;;3.90;1.10;;;25.80;66.80;;;;;;5090597;28;20440;-85
2022/06/11 07:56:27;;;;;;;3.38;1.20;;;26.20;69.20;;;;;;5093653;28;20047;-86
2022/06/11 07:59:16;;;;;;;1.73;1.15;;;26.60;64.10;;;;;;5089970;28;20111;-85
2022/06/11 08:02:05;;;;;;;7.35;1.20;;;26.80;69.60;;;;;;5094223;28;20056;-84
2022/06/11 08:04:52;;;;;;;3.13;1.45;;;27.70;65.30;;;;;;5082432;28;20345;-85
2022/06/11 08:07:40;;;;;;;2.83;1.00;;;27.90;62.20;;;;;;5083404;28;20482;-86
2022/06/11 08:10:28;;;;;;;3.58;1.27;;;28.00;57.30;;;;;;5081020;28;20459;-85
2022/06/11 08:13:18;;;;;;;5.45;1.40;;;28.10;57.50;;;;;;5099939;28;20068;-83
2022/06/11 08:16:07;;;;;;;6.95;1.30;;;28.50;55.90;;;;;;5095757;28;20047;-84
2022/06/11 08:18:54;;;;;;;3.35;1.02;;;28.40;61.80;;;;;;5095806;28;20047;-85
2022/06/11 08:21:42;;;;;;;2.30;1.00;;;28.70;60.80;;;;;;5091073;28;20056;-83
2022/06/11 08:24:30;;;;;;;2.63;1.10;;;28.50;54.70;;;;;;5092647;28;20048;-87
2022/06/11 08:27:17;;;;;;;5.78;1.40;;;27.40;55.40;;;;;;5091054;28;20044;-83
2022/06/11 08:30:05;;;;;;;4.45;1.65;;;26.60;59.40;;;;;;5074444;28;20099;-84
2022/06/11 08:32:56;;;;;;;5.05;1.10;;;25.90;60.10;;;;;;5071823;28;20043;-85
2022/06/11 08:35:45;;;;;;;5.57;1.40;;;26.20;61.20;;;;;;5089306;28;20071;-85
2022/06/11 08:38:35;;;;;;;7.32;1.08;;;26.30;58.90;;;;;;5076931;28;20047;-83
2022/06/11 08:41:31;;;;;;;4.05;1.10;;;26.20;59.70;;;;;;5088475;28;20040;-85
2022/06/11 08:44:19;;;;;;;4.65;1.30;;;26.70;56.70;;;;;;5070497;28;20119;-84
2022/06/11 08:47:15;;;;;;;3.42;1.00;;;27.00;55.70;;;;;;5090664;28;20044;-86
2022/06/11 08:50:04;;;;;;;7.40;1.40;;;27.30;60.60;;;;;;5089002;28;20036;-85
2022/06/11 08:52:51;;;;;;;6.63;1.60;;;28.20;58.20;;;;;;5088379;28;20050;-84
2022/06/11 08:55:42;;;;;;;4.60;1.30;;;28.70;58.60;;;;;;5088162;28;20052;-84
2022/06/11 08:59:08;;;;;;;4.85;1.35;;;29.10;50.10;;;;;;5078507;28;20337;-85
2022/06/11 09:02:14;;;;;;;4.55;1.70;;;28.60;50.80;;;;;;5078184;28;20381;-82
2022/06/11 09:05:19;;;;;;;2.78;1.40;;;27.90;51.30;;;;;;5086656;28;20040;-85
2022/06/11 09:08:34;;;;;;;8.88;2.60;;;27.20;53.20;;;;;;5070214;28;20062;-83
2022/06/11 09:11:42;;;;;;;5.22;1.65;;;27.00;54.50;;;;;;5070955;28;20044;-82
2022/06/11 09:14:37;;;;;;;4.88;1.60;;;26.80;55.30;;;;;;5088575;28;20079;-83
2022/06/11 09:17:48;;;;;;;7.57;1.73;;;26.60;54.90;;;;;;5090774;28;20048;-85
2022/06/11 09:21:00;;;;;;;6.03;1.30;;;27.40;55.60;;;;;;5086137;28;20044;-83
2022/06/11 09:23:58;;;;;;;4.95;1.25;;;29.40;57.00;;;;;;5093073;28;20044;-84
2022/06/11 09:27:07;;;;;;;6.03;1.25;;;30.60;46.70;;;;;;5079982;28;20097;-85
2022/06/11 09:30:10;;;;;;;5.95;1.70;;;29.10;43.00;;;;;;5077651;28;20131;-85
2022/06/11 09:33:28;;;;;;;4.90;1.48;;;29.50;44.60;;;;;;5080693;28;20147;-86
2022/06/11 09:36:40;;;;;;;7.13;1.90;;;28.90;43.00;;;;;;5092153;28;20147;-84
2022/06/11 09:39:58;;;;;;;6.40;2.30;;;27.30;42.20;;;;;;5078551;28;20051;-83
2022/06/11 09:42:52;;;;;;;4.85;1.20;;;25.70;46.80;;;;;;5100112;28;20058;-87
2022/06/11 09:45:52;;;;;;;2.40;1.00;;;25.10;52.10;;;;;;5075537;28;20410;-86
2022/06/11 09:49:08;;;;;;;5.97;2.17;;;25.00;61.50;;;;;;5092938;28;20056;-85
2022/06/11 09:52:12;;;;;;;5.57;1.92;;;25.20;49.60;;;;;;5077652;28;20040;-87
2022/06/11 09:55:14;;;;;;;5.97;2.00;;;26.30;49.40;;;;;;5091557;28;20040;-83
2022/06/11 09:58:29;;;;;;;5.75;1.30;;;27.50;44.00;;;;;;5088238;28;20048;-85
2022/06/11 10:01:31;;;;;;;10.23;2.22;;;28.20;44.80;;;;;;5082345;28;20048;-85
2022/06/11 10:04:25;;;;;;;4.90;1.58;;;28.00;43.90;;;;;;5090833;28;20151;-85
2022/06/11 10:07:26;;;;;;;4.88;1.20;;;27.90;51.30;;;;;;5091151;28;20044;-87
2022/06/11 10:10:26;;;;;;;3.92;1.17;;;29.60;44.00;;;;;;5082808;28;20055;-85
2022/06/11 10:13:37;;;;;;;4.20;1.10;;;29.20;42.80;;;;;;5092138;28;20041;-88
2022/06/11 10:16:35;;;;;;;5.43;1.80;;;29.20;45.80;;;;;;5074502;28;20035;-87
2022/06/11 10:19:35;;;;;;;4.50;1.50;;;30.30;46.20;;;;;;5086235;28;20048;-86
2022/06/11 10:22:34;;;;;;;3.78;1.15;;;31.80;40.30;;;;;;5105347;28;20040;-86
2022/06/11 10:25:35;;;;;;;3.05;0.98;;;31.10;40.10;;;;;;5111504;28;20055;-84
2022/06/11 10:28:49;;;;;;;4.60;1.38;;;31.60;37.40;;;;;;5117204;28;20024;-83
2022/06/11 10:32:01;;;;;;;4.88;1.10;;;32.10;43.60;;;;;;5095380;28;20075;-88
2022/06/11 10:35:23;;;;;;;3.55;1.08;;;33.10;34.70;;;;;;5113253;28;20043;-85
2022/06/11 10:38:34;;;;;;;4.25;1.30;;;33.50;34.10;;;;;;5101840;28;20070;-84
2022/06/11 10:41:25;;;;;;;3.88;1.20;;;32.10;36.10;;;;;;5111474;28;20036;-87
2022/06/11 10:44:51;;;;;;;5.53;1.75;;;31.00;39.00;;;;;;5123739;28;20078;-86
2022/06/11 10:47:52;;;;;;;3.70;1.35;;;29.30;41.50;;;;;;5124012;27;20058;-83
2022/06/11 10:51:33;;;;;;;4.50;1.08;;;28.90;41.10;;;;;;5109593;28;20088;-86
2022/06/11 10:54:51;;;;;;;4.28;1.58;;;29.50;41.00;;;;;;5106233;28;20050;-87
2022/06/11 10:57:44;;;;;;;4.53;0.90;;;30.70;42.80;;;;;;5099286;28;20105;-87
2022/06/11 11:00:53;;;;;;;3.30;1.20;;;32.20;38.80;;;;;;5085988;28;20048;-86
2022/06/11 11:04:05;;;;;;;3.90;1.10;;;33.50;36.20;;;;;;5094659;28;20043;-88
2022/06/11 11:07:11;;;;;;;3.78;1.08;;;32.90;37.40;;;;;;5075717;28;20052;-85
2022/06/11 11:10:03;;;;;;;3.00;1.05;;;31.00;38.00;;;;;;5092690;28;20119;-84
2022/06/11 11:13:02;;;;;;;4.38;1.02;;;30.10;39.80;;;;;;5092418;28;20056;-84
2022/06/11 11:15:59;;;;;;;2.55;0.93;;;29.70;39.60;;;;;;5096269;28;20101;-88
2022/06/11 11:19:14;;;;;;;4.05;1.20;;;29.70;41.20;;;;;;5086993;28;20047;-87
2022/06/11 11:22:05;;;;;;;3.63;1.27;;;30.20;40.00;;;;;;5078526;28;20047;-86
2022/06/11 11:24:54;;;;;;;4.70;1.10;;;32.00;43.30;;;;;;5084125;28;20048;-86
2022/06/11 11:27:47;;;;;;;4.35;1.20;;;33.50;37.50;;;;;;5090202;28;20048;-85
2022/06/11 11:30:39;;;;;;;4.25;1.13;;;33.70;38.80;;;;;;5092685;28;20409;-88
2022/06/11 11:33:36;;;;;;;2.83;1.40;;;34.50;37.40;;;;;;5091016;28;20112;-86
2022/06/11 11:36:26;;;;;;;4.35;1.15;;;34.90;35.60;;;;;;5091006;28;20139;-85
2022/06/11 11:39:13;;;;;;;4.53;1.08;;;35.10;32.90;;;;;;5091625;28;20085;-85
2022/06/11 11:42:05;;;;;;;3.75;1.00;;;33.20;34.10;;;;;;5093748;28;20157;-83
2022/06/11 11:44:59;;;;;;;3.95;1.20;;;32.50;40.00;;;;;;5095507;28;20044;-86
2022/06/11 11:47:52;;;;;;;2.40;0.80;;;34.00;37.40;;;;;;5092050;28;21228;-84
2022/06/11 11:50:41;;;;;;;3.80;1.35;;;34.30;33.40;;;;;;5090118;28;20074;-85
2022/06/11 11:53:47;;;;;;;6.85;1.70;;;34.40;32.00;;;;;;5094626;28;20421;-85
2022/06/11 11:56:42;;;;;;;6.47;1.15;;;34.50;38.80;;;;;;5095246;28;20465;-89
2022/06/11 12:00:02;;;;;;;3.58;1.20;;;35.00;34.40;;;;;;5079913;28;20043;-88
2022/06/11 12:02:55;;;;;;;5.50;0.93;;;36.00;30.00;;;;;;5064429;28;20689;-87
2022/06/11 12:05:52;;;;;;;3.15;0.70;;;36.70;31.80;;;;;;5085790;28;20445;-86
2022/06/11 12:08:48;;;;;;;2.10;0.80;;;37.70;30.20;;;;;;5079398;28;20432;-88
2022/06/11 12:11:37;;;;;;;4.70;1.17;;;37.50;30.20;;;;;;5076211;28;20036;-89
2022/06/11 12:14:38;;;;;;;6.63;1.20;;;36.90;28.80;;;;;;5090782;28;20048;-86
2022/06/11 12:17:44;;;;;;;3.50;1.50;;;35.20;30.50;;;;;;5076163;28;20105;-85
2022/06/11 12:20:34;;;;;;;3.00;1.15;;;33.30;33.40;;;;;;5091166;28;20298;-87
2022/06/11 12:23:42;;;;;;;4.15;0.95;;;31.90;35.90;;;;;;5089760;28;20111;-84
2022/06/11 12:26:50;;;;;;;2.35;1.08;;;32.10;35.30;;;;;;5091274;28;20379;-84
2022/06/11 12:29:45;;;;;;;3.78;1.25;;;31.30;35.50;;;;;;5092048;28;20405;-84
2022/06/11 12:32:34;;;;;;;5.50;1.23;;;30.80;36.30;;;;;;5096326;28;20071;-83
2022/06/11 12:35:34;;;;;;;2.97;1.00;;;31.60;36.70;;;;;;5074740;28;20059;-84
2022/06/11 12:38:33;;;;;;;3.65;1.10;;;31.90;36.60;;;;;;5090771;28;20043;-86
2022/06/11 12:41:42;;;;;;;3.15;1.17;;;32.70;37.00;;;;;;5083367;28;20052;-85
2022/06/11 12:44:39;;;;;;;3.40;1.20;;;34.20;35.30;;;;;;5077163;28;20047;-85
2022/06/11 12:47:34;;;;;;;5.22;1.55;;;34.60;32.00;;;;;;5094314;28;20056;-84
2022/06/11 12:51:17;;;;;;;4.55;1.45;;;34.60;30.50;;;;;;5089640;28;20216;-88
2022/06/11 12:54:32;;;;;;;3.03;1.08;;;34.00;31.40;;;;;;5078434;28;20059;-86
2022/06/11 12:57:28;;;;;;;1.75;0.70;;;34.20;31.90;;;;;;5081872;28;20048;-86
2022/06/11 13:00:37;;;;;;;3.35;1.27;;;34.10;33.70;;;;;;5084958;28;20094;-87
2022/06/11 13:03:47;;;;;;;2.70;1.20;;;35.40;34.00;;;;;;5086904;28;20063;-86
2022/06/11 13:06:56;;;;;;;7.30;1.25;;;36.50;29.70;;;;;;5088897;28;20052;-84
2022/06/11 13:10:19;;;;;;;2.75;1.05;;;36.80;29.60;;;;;;5096503;28;20048;-84
2022/06/11 13:13:24;;;;;;;2.05;0.98;;;37.50;28.90;;;;;;5090973;28;20047;-86
2022/06/11 13:16:20;;;;;;;3.72;1.05;;;35.80;29.60;;;;;;5093434;28;20528;-85
2022/06/11 13:19:12;;;;;;;3.63;1.15;;;34.90;31.70;;;;;;5085108;28;20486;-85
2022/06/11 13:22:35;;;;;;;3.17;1.05;;;34.10;31.60;;;;;;5092137;28;20052;-86
2022/06/11 13:25:37;;;;;;;6.28;0.93;;;33.50;33.30;;;;;;5029885;28;20057;-85
2022/06/11 13:28:48;;;;;;;2.47;0.90;;;32.90;34.30;;;;;;5089556;28;20117;-86
2022/06/11 13:31:44;;;;;;;6.38;1.35;;;32.40;32.90;;;;;;5087005;28;20472;-85
2022/06/11 13:34:34;;;;;;;4.63;1.27;;;32.10;35.30;;;;;;5090609;28;20429;-88
2022/06/11 13:37:45;;;;;;;12.27;0.98;;;33.00;36.10;;;;;;5089751;28;20036;-88
2022/06/11 13:40:46;;;;;;;2.63;0.68;;;33.70;35.50;;;;;;5090299;28;20085;-84
2022/06/11 13:44:03;;;;;;;3.83;1.20;;;34.80;30.50;;;;;;5075679;28;20365;-86
2022/06/11 13:47:18;;;;;;;3.65;1.35;;;34.70;34.40;;;;;;5087758;28;20085;-85
2022/06/11 13:50:06;;;;;;;4.07;1.20;;;35.40;30.00;;;;;;5086389;28;20204;-88
2022/06/11 13:56:35;;;;;;;4.45;1.20;;;34.80;33.80;;;;;;5088188;28;20123;-88
2022/06/11 13:59:32;;;;;;;2.88;0.98;;;35.50;37.10;;;;;;5091240;28;20032;-86
2022/06/11 14:02:28;;;;;;;4.28;1.23;;;35.80;29.80;;;;;;5081992;28;20056;-85
2022/06/11 14:05:24;;;;;;;2.65;1.13;;;35.40;34.70;;;;;;5084057;28;20120;-87
2022/06/11 14:08:20;;;;;;;3.10;1.08;;;34.60;30.20;;;;;;5085930;28;20456;-86
2022/06/11 14:11:32;;;;;;;1.60;0.80;;;34.30;36.80;;;;;;5093594;28;20044;-88
2022/06/11 14:14:41;;;;;;;5.60;1.15;;;34.60;34.90;;;;;;5089405;28;20504;-89
2022/06/11 14:18:16;;;;;;;3.95;0.80;;;34.20;35.30;;;;;;5071173;28;20068;-88
2022/06/11 14:21:06;;;;;;;1.98;1.00;;;34.20;31.30;;;;;;5066973;28;20080;-86
2022/06/11 14:23:54;;;;;;;1.88;1.10;;;34.10;36.60;;;;;;5090910;28;20449;-88
2022/06/11 14:26:54;;;;;;;1.63;0.90;;;34.30;36.60;;;;;;5076984;28;20063;-87
2022/06/11 14:30:03;;;;;;;5.22;1.20;;;34.30;30.70;;;;;;5077314;28;20379;-86
2022/06/11 14:33:26;;;;;;;4.55;1.10;;;33.80;37.60;;;;;;5094566;28;20433;-90
2022/06/11 14:36:18;;;;;;;7.30;1.25;;;33.60;32.30;;;;;;5086326;28;20048;-87
2022/06/11 14:39:29;;;;;;;4.70;1.55;;;32.30;35.20;;;;;;5087664;28;20040;-86
2022/06/11 14:42:24;;;;;;;5.45;1.20;;;30.80;36.00;;;;;;5088823;28;20067;-88
2022/06/11 14:45:36;;;;;;;5.80;1.23;;;30.80;37.80;;;;;;5084756;28;20044;-84
2022/06/11 14:48:43;;;;;;;3.38;0.93;;;31.30;40.70;;;;;;5091093;28;20055;-86
2022/06/11 14:51:42;;;;;;;3.50;1.30;;;31.90;41.30;;;;;;5082292;28;20055;-86
2022/06/11 14:54:43;;;;;;;3.47;1.20;;;32.10;36.20;;;;;;5073633;28;20044;-85
2022/06/11 14:57:53;;;;;;;3.28;0.80;;;31.80;40.20;;;;;;5095136;28;20106;-84
2022/06/11 15:01:26;;;;;;;2.20;1.10;;;31.90;38.40;;;;;;5088711;28;20070;-85
2022/06/11 15:04:35;;;;;;;3.50;1.33;;;31.40;41.10;;;;;;5068554;28;20048;-86
2022/06/11 15:07:29;;;;;;;1.75;1.00;;;31.00;40.40;;;;;;5079061;28;20052;-87
2022/06/11 15:10:34;;;;;;;4.70;1.20;;;30.80;40.40;;;;;;5084823;28;20113;-84
2022/06/11 15:14:00;;;;;;;4.60;1.17;;;30.60;40.90;;;;;;5098342;28;20103;-82
2022/06/11 15:16:59;;;;;;;3.22;1.38;;;30.20;38.40;;;;;;5094251;28;20051;-87
2022/06/11 15:19:56;;;;;;;6.47;1.63;;;29.20;40.30;;;;;;5095366;28;20466;-90
2022/06/11 15:22:47;;;;;;;3.53;1.52;;;28.30;44.50;;;;;;5072664;28;20060;-85